createdAt,value
2016-10-07T00:00:11.725Z,0
2016-10-07T00:01:22.465Z,0
2016-10-07T00:02:33.165Z,0
2016-10-07T00:03:43.865Z,0
2016-10-07T00:04:54.599Z,0
2016-10-07T00:06:05.318Z,0
2016-10-07T00:07:16.017Z,0
2016-10-07T00:08:26.738Z,0
2016-10-07T00:09:37.427Z,0
2016-10-07T00:10:48.124Z,0
2016-10-07T00:11:58.822Z,0
2016-10-07T00:13:10.097Z,0
2016-10-07T00:14:20.895Z,0
2016-10-07T00:15:31.623Z,0
2016-10-07T00:16:42.785Z,0
2016-10-07T00:17:54.062Z,0
2016-10-07T00:19:05.326Z,0
2016-10-07T00:20:16.037Z,0
2016-10-07T00:21:26.744Z,0
2016-10-07T00:22:37.457Z,0
2016-10-07T00:23:48.177Z,0
2016-10-07T00:24:59.382Z,0
2016-10-07T00:26:10.080Z,0
2016-10-07T00:27:20.805Z,0
2016-10-07T00:28:31.525Z,0
2016-10-07T00:29:42.224Z,0
2016-10-07T00:30:52.939Z,0
2016-10-07T00:32:04.157Z,0
2016-10-07T00:33:14.864Z,0
2016-10-07T00:34:25.575Z,0
2016-10-07T00:35:37.315Z,0
2016-10-07T00:36:48.018Z,0
2016-10-07T00:37:58.732Z,0
2016-10-07T00:39:09.435Z,0
2016-10-07T00:40:20.127Z,0
2016-10-07T00:41:30.837Z,0
2016-10-07T00:42:41.527Z,0
2016-10-07T00:43:52.288Z,0
2016-10-07T00:45:03.002Z,0
2016-10-07T00:46:13.691Z,0
2016-10-07T00:47:25.187Z,0
2016-10-07T00:48:36.037Z,0
2016-10-07T00:49:46.743Z,0
2016-10-07T00:50:57.447Z,0
2016-10-07T00:52:08.121Z,0
2016-10-07T00:53:18.843Z,0
2016-10-07T00:54:29.594Z,0
2016-10-07T00:55:40.309Z,0
2016-10-07T00:56:51.015Z,0
2016-10-07T00:58:01.778Z,0
2016-10-07T00:59:12.467Z,0
2016-10-07T01:00:23.187Z,0
2016-10-07T01:01:33.879Z,0
2016-10-07T01:02:44.602Z,0
2016-10-07T01:03:55.330Z,0
2016-10-07T01:05:06.054Z,0
2016-10-07T01:06:16.756Z,0
2016-10-07T01:07:27.457Z,0
2016-10-07T01:08:38.159Z,0
2016-10-07T01:09:48.870Z,0
2016-10-07T01:10:59.574Z,0
2016-10-07T01:12:10.253Z,0
2016-10-07T01:13:20.959Z,0
2016-10-07T01:14:31.666Z,0
2016-10-07T01:15:42.370Z,0
2016-10-07T01:16:53.085Z,0
2016-10-07T01:18:03.808Z,0
2016-10-07T01:19:15.040Z,0
2016-10-07T01:20:25.751Z,0
2016-10-07T01:21:36.535Z,0
2016-10-07T01:22:47.244Z,0
2016-10-07T01:23:57.943Z,0
2016-10-07T01:25:08.641Z,0
2016-10-07T01:26:19.861Z,0
2016-10-07T01:27:30.576Z,0
2016-10-07T01:28:41.296Z,0
2016-10-07T01:29:52.028Z,0
2016-10-07T01:31:03.257Z,0
2016-10-07T01:32:13.965Z,0
2016-10-07T01:33:24.680Z,0
2016-10-07T01:34:35.398Z,0
2016-10-07T01:35:46.096Z,0
2016-10-07T01:36:56.797Z,0
2016-10-07T01:38:07.503Z,0
2016-10-07T01:39:18.218Z,0
2016-10-07T01:40:28.907Z,0
2016-10-07T01:41:39.610Z,0
2016-10-07T01:42:50.301Z,0
2016-10-07T01:44:01.000Z,0
2016-10-07T01:45:11.680Z,0
2016-10-07T01:46:22.378Z,0
2016-10-07T01:47:33.114Z,0
2016-10-07T01:48:43.811Z,0
2016-10-07T01:49:54.529Z,0
2016-10-07T01:51:05.215Z,0
2016-10-07T01:52:15.930Z,0
2016-10-07T01:53:26.639Z,0
2016-10-07T01:54:37.846Z,0
2016-10-07T01:55:48.577Z,0
2016-10-07T01:56:59.276Z,0
2016-10-07T01:58:09.955Z,0
2016-10-07T01:59:20.687Z,0
2016-10-07T02:00:31.965Z,0
2016-10-07T02:01:42.673Z,0
2016-10-07T02:02:53.374Z,0
2016-10-07T02:04:04.108Z,0
2016-10-07T02:05:14.800Z,0
2016-10-07T02:06:25.504Z,0
2016-10-07T02:07:36.206Z,0
2016-10-07T02:08:46.912Z,0
2016-10-07T02:09:57.663Z,0
2016-10-07T02:11:08.380Z,0
2016-10-07T02:12:19.070Z,0
2016-10-07T02:13:29.777Z,0
2016-10-07T02:14:40.498Z,0
2016-10-07T02:15:51.645Z,0
2016-10-07T02:17:02.366Z,0
2016-10-07T02:18:13.096Z,0
2016-10-07T02:19:23.804Z,0
2016-10-07T02:20:34.495Z,0
2016-10-07T02:21:45.177Z,0
2016-10-07T02:22:55.864Z,0
2016-10-07T02:24:06.578Z,0
2016-10-07T02:25:17.284Z,0
2016-10-07T02:26:27.992Z,0
2016-10-07T02:27:38.723Z,0
2016-10-07T02:28:49.424Z,0
2016-10-07T02:30:00.151Z,0
2016-10-07T02:31:10.852Z,0
2016-10-07T02:32:21.580Z,0
2016-10-07T02:33:32.303Z,0
2016-10-07T02:34:43.009Z,0
2016-10-07T02:35:53.693Z,0
2016-10-07T02:37:04.466Z,0
2016-10-07T02:38:15.170Z,0
2016-10-07T02:39:26.381Z,0
2016-10-07T02:40:37.096Z,0
2016-10-07T02:41:47.784Z,0
2016-10-07T02:42:58.474Z,0
2016-10-07T02:44:09.179Z,0
2016-10-07T02:45:19.912Z,0
2016-10-07T02:46:30.617Z,0
2016-10-07T02:47:41.329Z,0
2016-10-07T02:48:52.040Z,0
2016-10-07T02:50:02.773Z,0
2016-10-07T02:51:13.526Z,0
2016-10-07T02:52:24.241Z,0
2016-10-07T02:53:34.965Z,0
2016-10-07T02:54:45.678Z,0
2016-10-07T02:55:56.375Z,0
2016-10-07T02:57:07.108Z,0
2016-10-07T02:58:17.824Z,0
2016-10-07T02:59:28.504Z,0
2016-10-07T03:00:39.199Z,0
2016-10-07T03:01:49.901Z,0
2016-10-07T03:03:00.610Z,0
2016-10-07T03:04:11.330Z,0
2016-10-07T03:05:22.044Z,0
2016-10-07T03:06:32.775Z,0
2016-10-07T03:10:37.104Z,0
2016-10-07T03:11:47.836Z,0
2016-10-07T03:12:58.539Z,0
2016-10-07T03:14:09.249Z,0
2016-10-07T03:15:19.977Z,0
2016-10-07T03:16:30.725Z,0
2016-10-07T03:17:41.456Z,0
2016-10-07T03:18:52.184Z,0
2016-10-07T03:20:02.925Z,0
2016-10-07T03:21:13.649Z,0
2016-10-07T03:22:24.392Z,0
2016-10-07T03:23:35.121Z,0
2016-10-07T03:24:45.833Z,0
2016-10-07T03:25:56.528Z,0
2016-10-07T03:27:07.213Z,0
2016-10-07T03:28:17.939Z,0
2016-10-07T03:29:28.637Z,0
2016-10-07T03:30:39.340Z,0
2016-10-07T03:31:50.046Z,0
2016-10-07T03:33:01.271Z,0
2016-10-07T03:34:12.021Z,0
2016-10-07T03:35:23.238Z,0
2016-10-07T03:36:34.452Z,0
2016-10-07T03:37:46.198Z,0
2016-10-07T03:38:56.901Z,0
2016-10-07T03:40:07.685Z,0
2016-10-07T03:41:18.390Z,0
2016-10-07T03:42:29.087Z,0
2016-10-07T03:43:40.323Z,0
2016-10-07T03:44:51.044Z,0
2016-10-07T03:46:02.875Z,0
2016-10-07T03:47:13.590Z,0
2016-10-07T03:48:24.300Z,0
2016-10-07T03:49:35.534Z,0
2016-10-07T03:50:46.764Z,0
2016-10-07T03:51:57.472Z,0
2016-10-07T03:53:08.213Z,0
2016-10-07T03:54:19.452Z,0
2016-10-07T03:55:30.183Z,0
2016-10-07T03:56:40.889Z,0
2016-10-07T03:57:51.609Z,0
2016-10-07T03:59:02.451Z,0
2016-10-07T04:00:13.718Z,0
2016-10-07T04:01:25.029Z,0
2016-10-07T04:02:35.743Z,0
2016-10-07T04:03:46.460Z,0
2016-10-07T04:04:57.181Z,0
2016-10-07T04:06:07.892Z,0
2016-10-07T04:07:18.600Z,0
2016-10-07T04:08:29.307Z,0
2016-10-07T04:09:40.034Z,0
2016-10-07T04:10:51.361Z,0
2016-10-07T04:12:02.099Z,0
2016-10-07T04:13:12.807Z,0
2016-10-07T04:14:23.513Z,0
2016-10-07T04:15:34.238Z,0
2016-10-07T04:16:44.938Z,0
2016-10-07T04:17:56.154Z,0
2016-10-07T04:19:07.381Z,0
2016-10-07T04:20:18.098Z,0
2016-10-07T04:21:29.302Z,0
2016-10-07T04:22:39.982Z,0
2016-10-07T04:23:50.702Z,0
2016-10-07T04:25:01.936Z,0
2016-10-07T04:26:13.167Z,0
2016-10-07T04:27:23.878Z,0
2016-10-07T04:28:34.604Z,0
2016-10-07T04:29:45.306Z,0
2016-10-07T04:30:56.010Z,0
2016-10-07T04:32:06.712Z,0
2016-10-07T04:33:17.445Z,0
2016-10-07T04:34:28.154Z,0
2016-10-07T04:35:38.872Z,0
2016-10-07T04:36:49.589Z,0
2016-10-07T04:38:00.850Z,0
2016-10-07T04:39:11.555Z,0
2016-10-07T04:40:22.263Z,0
2016-10-07T04:41:32.965Z,0
2016-10-07T04:42:43.690Z,0
2016-10-07T04:43:54.403Z,0
2016-10-07T04:45:05.100Z,0
2016-10-07T04:46:15.810Z,0
2016-10-07T04:47:26.521Z,0
2016-10-07T04:48:37.196Z,0
2016-10-07T04:49:48.913Z,0
2016-10-07T04:50:59.608Z,0
2016-10-07T04:52:10.313Z,0
2016-10-07T04:53:21.041Z,0
2016-10-07T04:54:31.765Z,0
2016-10-07T04:55:42.478Z,0
2016-10-07T04:56:53.195Z,0
2016-10-07T04:58:03.967Z,0
2016-10-07T04:59:14.670Z,0
2016-10-07T05:00:25.372Z,0
2016-10-07T05:01:36.095Z,0
2016-10-07T05:02:46.822Z,0
2016-10-07T05:03:57.508Z,0
2016-10-07T05:05:08.230Z,0
2016-10-07T05:06:18.943Z,0
2016-10-07T05:07:29.645Z,0
2016-10-07T05:08:40.337Z,0
2016-10-07T05:09:51.021Z,0
2016-10-07T05:11:02.264Z,0
2016-10-07T05:12:12.945Z,0
2016-10-07T05:13:23.658Z,0
2016-10-07T05:14:34.381Z,0
2016-10-07T05:15:45.076Z,0
2016-10-07T05:16:56.276Z,0
2016-10-07T05:18:06.959Z,0
2016-10-07T05:19:17.669Z,0
2016-10-07T05:20:28.361Z,0
2016-10-07T05:21:39.041Z,0
2016-10-07T05:22:49.746Z,0
2016-10-07T05:24:00.474Z,0
2016-10-07T05:25:11.170Z,0
2016-10-07T05:26:21.857Z,0
2016-10-07T05:27:32.563Z,0
2016-10-07T05:28:43.254Z,0
2016-10-07T05:29:53.965Z,0
2016-10-07T05:31:04.694Z,0
2016-10-07T05:32:15.393Z,0
2016-10-07T05:33:26.115Z,0
2016-10-07T05:34:36.821Z,0
2016-10-07T05:35:47.522Z,0
2016-10-07T05:36:58.221Z,0
2016-10-07T05:38:08.901Z,0
2016-10-07T05:39:20.127Z,0
2016-10-07T05:40:30.829Z,0
2016-10-07T05:41:41.529Z,0
2016-10-07T05:42:52.223Z,0
2016-10-07T05:44:02.926Z,0
2016-10-07T05:45:13.654Z,0
2016-10-07T05:46:24.349Z,0
2016-10-07T05:47:35.067Z,0
2016-10-07T05:48:45.782Z,0
2016-10-07T05:49:56.498Z,0
2016-10-07T05:51:07.224Z,0
2016-10-07T05:52:17.910Z,0
2016-10-07T05:53:28.602Z,0
2016-10-07T05:54:39.297Z,0
2016-10-07T05:55:49.971Z,0
2016-10-07T05:57:00.709Z,0
2016-10-07T05:58:11.429Z,0
2016-10-07T05:59:22.144Z,0
2016-10-07T06:00:32.827Z,0
2016-10-07T06:01:43.549Z,0
2016-10-07T06:02:54.241Z,0
2016-10-07T06:04:04.953Z,0
2016-10-07T06:05:15.656Z,0
2016-10-07T06:06:26.349Z,0
2016-10-07T06:07:37.073Z,0
2016-10-07T06:08:47.806Z,0
2016-10-07T06:09:58.541Z,0
2016-10-07T06:11:09.762Z,0
2016-10-07T06:12:20.452Z,0
2016-10-07T06:13:31.161Z,0
2016-10-07T06:14:41.876Z,0
2016-10-07T06:15:52.619Z,0
2016-10-07T06:17:03.313Z,0
2016-10-07T06:18:14.013Z,0
2016-10-07T06:19:24.727Z,0
2016-10-07T06:20:35.440Z,0
2016-10-07T06:21:46.149Z,0
2016-10-07T06:22:56.853Z,0
2016-10-07T06:24:07.585Z,0
2016-10-07T06:25:18.282Z,0
2016-10-07T06:26:28.971Z,0
2016-10-07T06:27:39.682Z,0
2016-10-07T06:28:50.385Z,0
2016-10-07T06:30:01.079Z,0
2016-10-07T06:31:12.289Z,0
2016-10-07T06:32:22.997Z,0
2016-10-07T06:33:33.680Z,0
2016-10-07T06:34:44.366Z,0
2016-10-07T06:35:55.059Z,0
2016-10-07T06:37:05.773Z,0
2016-10-07T06:38:16.480Z,0
2016-10-07T06:39:27.181Z,0
2016-10-07T06:40:37.909Z,0
2016-10-07T06:41:48.643Z,0
2016-10-07T06:42:59.377Z,0
2016-10-07T06:44:10.128Z,0
2016-10-07T06:45:20.858Z,0
2016-10-07T06:46:31.570Z,0
2016-10-07T06:47:42.297Z,0
2016-10-07T06:48:52.982Z,0
2016-10-07T06:50:03.681Z,0
2016-10-07T06:51:14.397Z,0
2016-10-07T06:52:25.131Z,0
2016-10-07T06:53:35.820Z,0
2016-10-07T06:54:46.552Z,0
2016-10-07T06:55:57.257Z,0
2016-10-07T06:57:07.971Z,0
2016-10-07T06:58:18.669Z,0
2016-10-07T06:59:29.358Z,0
2016-10-07T07:00:40.068Z,0
2016-10-07T07:01:50.755Z,0
2016-10-07T07:03:01.483Z,0
2016-10-07T07:04:12.189Z,0
2016-10-07T07:05:22.966Z,0
2016-10-07T07:06:33.651Z,0
2016-10-07T07:07:44.344Z,0
2016-10-07T07:08:55.037Z,0
2016-10-07T07:10:05.729Z,0
2016-10-07T07:11:16.424Z,0
2016-10-07T07:12:27.116Z,0
2016-10-07T07:13:37.812Z,0
2016-10-07T07:14:48.527Z,0
2016-10-07T07:15:59.252Z,0
2016-10-07T07:17:09.936Z,0
2016-10-07T07:18:20.634Z,0
2016-10-07T07:19:31.347Z,0
2016-10-07T07:20:42.820Z,0
2016-10-07T07:21:53.525Z,0
2016-10-07T07:23:04.244Z,0
2016-10-07T07:24:14.931Z,0
2016-10-07T07:25:25.683Z,0
2016-10-07T07:26:36.390Z,0
2016-10-07T07:27:47.107Z,0
2016-10-07T07:28:57.823Z,0
2016-10-07T07:30:08.527Z,0
2016-10-07T07:31:19.215Z,0
2016-10-07T07:32:29.901Z,0
2016-10-07T07:33:40.612Z,0
2016-10-07T07:34:51.811Z,0
2016-10-07T07:36:02.492Z,0
2016-10-07T07:37:13.165Z,0
2016-10-07T07:38:23.893Z,0
2016-10-07T07:39:34.608Z,0
2016-10-07T07:40:45.315Z,0
2016-10-07T07:41:56.030Z,0
2016-10-07T07:43:06.715Z,0
2016-10-07T07:44:17.427Z,0
2016-10-07T07:45:28.136Z,0
2016-10-07T07:46:38.845Z,0
2016-10-07T07:47:49.523Z,0
2016-10-07T07:49:00.727Z,0
2016-10-07T07:50:11.418Z,0
2016-10-07T07:51:22.112Z,0
2016-10-07T07:52:32.800Z,0
2016-10-07T07:53:43.531Z,0
2016-10-07T07:54:54.348Z,0
2016-10-07T07:56:05.051Z,0
2016-10-07T07:57:15.770Z,0
2016-10-07T07:58:26.450Z,0
2016-10-07T07:59:37.147Z,0
2016-10-07T08:00:47.846Z,0
2016-10-07T08:01:58.545Z,0
2016-10-07T08:03:09.268Z,0
2016-10-07T08:04:19.970Z,0
2016-10-07T08:05:30.670Z,0
2016-10-07T08:06:42.396Z,0
2016-10-07T08:07:53.112Z,0
2016-10-07T08:09:04.298Z,0
2016-10-07T08:10:15.012Z,0
2016-10-07T08:11:25.700Z,0
2016-10-07T08:12:36.396Z,0
2016-10-07T08:13:47.086Z,0
2016-10-07T08:14:58.340Z,0
2016-10-07T08:16:09.068Z,0
2016-10-07T08:17:19.733Z,0
2016-10-07T08:18:30.441Z,4
2016-10-07T08:19:41.138Z,4
2016-10-07T08:20:51.827Z,8
2016-10-07T08:22:02.520Z,8
2016-10-07T08:23:13.214Z,4
2016-10-07T08:24:23.908Z,12
2016-10-07T08:25:34.595Z,16
2016-10-07T08:26:45.307Z,20
2016-10-07T08:27:56.036Z,28
2016-10-07T08:29:06.733Z,36
2016-10-07T08:30:17.429Z,44
2016-10-07T08:31:28.139Z,56
2016-10-07T08:32:38.895Z,72
2016-10-07T08:33:50.120Z,96
2016-10-07T08:35:00.823Z,128
2016-10-07T08:36:11.535Z,144
2016-10-07T08:37:22.258Z,180
2016-10-07T08:38:32.953Z,220
2016-10-07T08:39:43.655Z,248
2016-10-07T08:40:54.360Z,284
2016-10-07T08:42:05.068Z,340
2016-10-07T08:43:15.788Z,384
2016-10-07T08:44:26.513Z,432
2016-10-07T08:45:37.261Z,448
2016-10-07T08:46:48.033Z,480
2016-10-07T08:47:58.757Z,552
2016-10-07T08:49:09.469Z,648
2016-10-07T08:50:20.180Z,756
2016-10-07T08:51:30.870Z,808
2016-10-07T08:52:41.576Z,860
2016-10-07T08:53:52.268Z,924
2016-10-07T08:55:02.963Z,936
2016-10-07T08:56:13.661Z,1000
2016-10-07T08:57:24.375Z,1164
2016-10-07T08:58:35.081Z,1292
2016-10-07T08:59:45.787Z,1544
2016-10-07T09:00:56.497Z,1720
2016-10-07T09:02:07.223Z,1996
2016-10-07T09:03:17.931Z,2212
2016-10-07T09:04:28.616Z,2328
2016-10-07T09:05:39.320Z,2428
2016-10-07T09:06:50.032Z,2588
2016-10-07T09:08:00.734Z,2736
2016-10-07T09:09:11.476Z,2940
2016-10-07T09:10:22.174Z,2844
2016-10-07T09:11:32.876Z,2520
2016-10-07T09:12:43.558Z,2192
2016-10-07T09:13:54.238Z,2092
2016-10-07T09:15:04.965Z,2168
2016-10-07T09:16:15.692Z,2300
2016-10-07T09:17:26.403Z,2516
2016-10-07T09:18:37.101Z,2708
2016-10-07T09:19:47.810Z,2820
2016-10-07T09:20:58.521Z,2952
2016-10-07T09:22:09.234Z,3180
2016-10-07T09:23:19.944Z,3308
2016-10-07T09:24:30.636Z,3116
2016-10-07T09:25:41.345Z,2868
2016-10-07T09:26:52.051Z,2704
2016-10-07T09:28:02.749Z,2948
2016-10-07T09:29:13.471Z,3144
2016-10-07T09:30:24.164Z,3300
2016-10-07T09:31:34.851Z,3652
2016-10-07T09:32:45.547Z,4832
2016-10-07T09:55:25.858Z,14480
2016-10-07T09:56:36.579Z,14188
2016-10-07T09:57:47.306Z,14776
2016-10-07T09:58:58.004Z,15364
2016-10-07T10:00:08.702Z,15360
2016-10-07T10:01:19.437Z,15016
2016-10-07T10:02:30.159Z,14100
2016-10-07T10:03:40.884Z,13680
2016-10-07T10:04:51.590Z,14172
2016-10-07T10:06:02.309Z,15040
2016-10-07T10:07:13.017Z,33824
2016-10-07T10:08:23.749Z,14344
2016-10-07T10:09:34.470Z,13848
2016-10-07T10:10:45.164Z,12860
2016-10-07T10:11:55.860Z,12316
2016-10-07T10:13:06.548Z,12512
2016-10-07T10:14:17.263Z,14108
2016-10-07T10:15:27.962Z,16588
2016-10-07T10:16:38.663Z,16560
2016-10-07T10:17:49.362Z,16104
2016-10-07T10:19:00.081Z,15408
2016-10-07T10:20:10.830Z,13976
2016-10-07T10:21:21.527Z,14968
2016-10-07T10:22:32.227Z,17100
2016-10-07T10:23:42.943Z,21504
2016-10-07T10:24:53.638Z,20576
2016-10-07T10:26:04.325Z,22464
2016-10-07T10:27:15.022Z,23424
2016-10-07T10:28:25.720Z,26144
2016-10-07T10:29:36.962Z,28576
2016-10-07T10:30:47.697Z,28544
2016-10-07T10:31:58.444Z,31328
2016-10-07T10:33:09.170Z,30720
2016-10-07T10:34:19.881Z,27872
2016-10-07T10:35:30.609Z,31264
2016-10-07T10:36:41.329Z,31680
2016-10-07T10:37:52.558Z,25696
2016-10-07T10:39:03.788Z,26240
2016-10-07T10:40:14.514Z,31264
2016-10-07T10:41:25.245Z,30400
2016-10-07T10:42:35.955Z,30400
2016-10-07T10:43:46.673Z,33088
2016-10-07T10:44:57.385Z,31808
2016-10-07T10:46:08.094Z,27360
2016-10-07T10:47:18.819Z,21344
2016-10-07T10:48:29.534Z,16416
2016-10-07T10:49:40.257Z,15128
2016-10-07T10:50:50.972Z,16708
2016-10-07T10:52:01.689Z,18400
2016-10-07T10:53:12.409Z,20480
2016-10-07T10:54:23.111Z,22592
2016-10-07T10:55:33.826Z,24800
2016-10-07T10:56:44.542Z,25792
2016-10-07T10:57:55.270Z,25856
2016-10-07T10:59:05.978Z,26752
2016-10-07T11:00:16.685Z,24896
2016-10-07T11:01:27.406Z,22272
2016-10-07T11:02:38.109Z,21888
2016-10-07T11:03:48.825Z,21280
2016-10-07T11:04:59.535Z,19136
2016-10-07T11:06:10.255Z,17184
2016-10-07T11:07:20.951Z,15580
2016-10-07T11:08:31.641Z,13348
2016-10-07T11:09:42.364Z,11556
2016-10-07T11:10:53.083Z,11620
2016-10-07T11:12:04.318Z,12872
2016-10-07T11:13:15.041Z,13912
2016-10-07T11:14:25.735Z,15608
2016-10-07T11:15:36.437Z,18016
2016-10-07T11:16:47.140Z,19488
2016-10-07T11:17:57.850Z,19360
2016-10-07T11:19:08.580Z,18944
2016-10-07T11:20:19.316Z,20800
2016-10-07T11:21:30.035Z,23424
2016-10-07T11:22:40.766Z,25536
2016-10-07T11:23:52.020Z,27328
2016-10-07T11:25:02.772Z,29472
2016-10-07T11:26:13.467Z,30752
2016-10-07T11:27:24.166Z,32000
2016-10-07T11:28:34.870Z,34112
2016-10-07T11:29:45.583Z,36576
2016-10-07T11:30:56.288Z,37408
2016-10-07T11:32:07.517Z,37984
2016-10-07T11:33:18.751Z,31808
2016-10-07T11:34:29.431Z,29792
2016-10-07T11:35:40.220Z,30112
2016-10-07T11:36:51.460Z,81216
2016-10-07T11:38:02.174Z,50080
2016-10-07T11:39:13.406Z,49504
2016-10-07T11:40:24.118Z,42976
2016-10-07T11:41:34.842Z,47680
2016-10-07T11:42:45.561Z,55712
2016-10-07T11:43:56.298Z,53760
2016-10-07T11:45:07.519Z,47840
2016-10-07T11:46:18.230Z,49280
2016-10-07T11:47:28.986Z,54944
2016-10-07T11:48:39.715Z,51296
2016-10-07T11:49:50.674Z,65664
2016-10-07T11:51:01.406Z,95040
2016-10-07T11:52:12.127Z,112224
2016-10-07T11:53:22.835Z,96576
2016-10-07T11:54:33.537Z,62400
2016-10-07T11:55:44.228Z,141376
2016-10-07T11:56:54.927Z,137632
2016-10-07T11:58:05.616Z,122816
2016-10-07T11:59:16.338Z,38112
2016-10-07T12:00:27.075Z,30592
2016-10-07T12:01:38.303Z,25152
2016-10-07T12:02:48.995Z,21536
2016-10-07T12:03:59.692Z,18656
2016-10-07T12:05:10.418Z,16560
2016-10-07T12:06:21.123Z,15060
2016-10-07T12:07:31.813Z,13724
2016-10-07T12:08:42.534Z,12964
2016-10-07T12:09:53.257Z,12680
2016-10-07T12:11:03.977Z,12848
2016-10-07T12:12:14.672Z,13136
2016-10-07T12:13:25.406Z,13264
2016-10-07T12:14:36.155Z,13276
2016-10-07T12:15:46.874Z,13456
2016-10-07T12:16:57.611Z,13784
2016-10-07T12:18:08.310Z,14012
2016-10-07T12:19:19.040Z,13860
2016-10-07T12:20:29.749Z,13620
2016-10-07T12:21:40.466Z,13580
2016-10-07T12:22:51.164Z,13840
2016-10-07T12:24:01.849Z,14468
2016-10-07T12:25:12.563Z,15404
2016-10-07T12:26:23.790Z,16524
2016-10-07T12:27:34.494Z,17792
2016-10-07T12:28:45.706Z,18976
2016-10-07T12:29:56.930Z,20288
2016-10-07T12:31:07.664Z,21728
2016-10-07T12:32:18.357Z,23392
2016-10-07T12:33:29.087Z,24992
2016-10-07T12:34:39.808Z,26656
2016-10-07T12:35:50.533Z,28224
2016-10-07T12:37:01.261Z,29984
2016-10-07T12:38:11.956Z,32128
2016-10-07T12:39:23.182Z,34336
2016-10-07T12:40:33.885Z,36736
2016-10-07T12:41:44.563Z,39712
2016-10-07T12:42:55.297Z,43552
2016-10-07T12:44:06.038Z,47264
2016-10-07T12:45:17.321Z,48544
2016-10-07T12:46:28.525Z,46560
2016-10-07T12:47:39.764Z,43296
2016-10-07T12:48:50.967Z,40704
2016-10-07T12:50:02.192Z,39808
2016-10-07T12:51:12.921Z,39872
2016-10-07T12:52:24.132Z,40576
2016-10-07T12:53:35.376Z,41984
2016-10-07T12:54:46.115Z,43744
2016-10-07T12:55:56.856Z,45920
2016-10-07T12:57:07.572Z,49280
2016-10-07T12:58:18.285Z,54368
2016-10-07T12:59:28.991Z,62368
2016-10-07T13:00:39.710Z,66976
2016-10-07T13:01:50.969Z,77088
2016-10-07T13:03:01.671Z,104160
2016-10-07T13:04:12.421Z,70752
2016-10-07T13:05:23.140Z,62592
2016-10-07T13:06:33.869Z,58144
2016-10-07T13:07:44.589Z,54592
2016-10-07T13:08:55.306Z,50304
2016-10-07T13:10:06.049Z,44480
2016-10-07T13:11:16.756Z,38144
2016-10-07T13:12:27.462Z,32960
2016-10-07T13:13:38.878Z,29504
2016-10-07T13:14:49.683Z,27520
2016-10-07T13:16:00.889Z,27360
2016-10-07T13:17:11.595Z,28384
2016-10-07T13:18:22.321Z,29472
2016-10-07T13:19:33.024Z,31104
2016-10-07T13:20:43.719Z,34144
2016-10-07T13:21:54.563Z,47776
2016-10-07T13:23:05.289Z,44192
2016-10-07T13:24:16.006Z,45440
2016-10-07T13:25:26.881Z,49600
2016-10-07T13:26:37.682Z,54944
2016-10-07T13:27:48.425Z,131968
2016-10-07T13:28:59.169Z,163808
2016-10-07T13:30:09.930Z,89728
2016-10-07T13:31:20.689Z,69216
2016-10-07T13:32:31.411Z,63648
2016-10-07T13:33:42.149Z,59104
2016-10-07T13:34:53.033Z,57120
2016-10-07T13:36:03.745Z,51968
2016-10-07T13:37:14.476Z,47584
2016-10-07T13:38:25.200Z,44512
2016-10-07T13:39:35.890Z,43808
2016-10-07T13:40:46.636Z,44608
2016-10-07T13:41:58.808Z,47456
2016-10-07T13:43:09.564Z,48576
2016-10-07T13:44:20.297Z,46464
2016-10-07T13:45:31.025Z,44512
2016-10-07T13:46:41.768Z,47968
2016-10-07T13:47:52.456Z,56224
2016-10-07T13:49:03.211Z,100320
2016-10-07T13:50:13.959Z,66880
2016-10-07T13:51:24.684Z,71360
2016-10-07T13:52:35.415Z,61792
2016-10-07T13:53:46.143Z,62944
2016-10-07T13:54:56.846Z,56960
2016-10-07T13:56:07.540Z,132672
2016-10-07T13:57:18.765Z,45440
2016-10-07T13:58:29.473Z,58176
2016-10-07T13:59:40.180Z,144192
2016-10-07T14:00:51.400Z,148512
2016-10-07T14:02:02.149Z,78464
2016-10-07T14:03:12.847Z,162016
2016-10-07T14:04:23.562Z,105056
2016-10-07T14:05:34.292Z,167264
2016-10-07T14:06:44.995Z,86816
2016-10-07T14:07:55.723Z,68416
2016-10-07T14:09:06.460Z,67072
2016-10-07T14:10:17.176Z,109056
2016-10-07T14:11:27.957Z,59456
2016-10-07T14:12:38.679Z,50464
2016-10-07T14:13:49.424Z,45984
2016-10-07T14:15:00.660Z,43616
2016-10-07T14:16:11.429Z,42560
2016-10-07T14:17:22.157Z,51552
2016-10-07T14:18:33.385Z,51680
2016-10-07T14:19:44.103Z,49504
2016-10-07T14:20:54.809Z,47456
2016-10-07T14:22:05.514Z,46720
2016-10-07T14:23:16.216Z,45888
2016-10-07T14:24:26.964Z,47648
2016-10-07T14:25:37.699Z,49760
2016-10-07T14:26:48.942Z,69088
2016-10-07T14:27:59.676Z,152224
2016-10-07T14:29:10.896Z,152672
2016-10-07T14:30:21.620Z,153312
2016-10-07T14:31:32.334Z,159392
2016-10-07T14:32:43.417Z,49568
2016-10-07T14:33:54.618Z,44736
2016-10-07T14:35:05.328Z,51648
2016-10-07T14:36:16.568Z,36192
2016-10-07T14:37:27.279Z,33536
2016-10-07T14:38:37.996Z,32224
2016-10-07T14:39:48.706Z,31456
2016-10-07T14:40:59.435Z,29984
2016-10-07T14:42:10.151Z,28704
2016-10-07T14:43:20.876Z,27904
2016-10-07T14:44:31.570Z,27328
2016-10-07T14:45:42.283Z,26976
2016-10-07T14:46:52.992Z,27008
2016-10-07T14:48:03.729Z,26848
2016-10-07T14:49:14.462Z,27296
2016-10-07T14:50:25.168Z,27648
2016-10-07T14:51:36.395Z,27360
2016-10-07T14:52:47.110Z,27200
2016-10-07T14:53:57.839Z,27840
2016-10-07T14:55:08.541Z,28896
2016-10-07T14:56:19.258Z,29888
2016-10-07T14:57:29.959Z,30144
2016-10-07T14:58:41.175Z,29376
2016-10-07T14:59:51.867Z,28864
2016-10-07T15:01:02.602Z,29664
2016-10-07T15:02:13.336Z,30656
2016-10-07T15:03:24.011Z,32384
2016-10-07T15:04:34.727Z,34720
2016-10-07T15:05:45.434Z,36672
2016-10-07T15:06:56.137Z,60224
2016-10-07T15:08:06.893Z,96192
2016-10-07T15:09:17.600Z,146784
2016-10-07T15:10:28.306Z,148096
2016-10-07T15:11:39.009Z,145600
2016-10-07T15:12:49.770Z,146464
2016-10-07T15:14:00.515Z,67744
2016-10-07T15:15:11.232Z,40128
2016-10-07T15:16:21.949Z,37792
2016-10-07T15:17:32.693Z,37760
2016-10-07T15:18:43.579Z,39296
2016-10-07T15:19:54.300Z,50784
2016-10-07T15:21:05.026Z,138816
2016-10-07T15:22:15.750Z,44544
2016-10-07T15:23:26.489Z,41120
2016-10-07T15:24:37.198Z,38592
2016-10-07T15:25:47.918Z,36448
2016-10-07T15:26:58.633Z,34784
2016-10-07T15:28:09.372Z,32608
2016-10-07T15:29:20.115Z,29696
2016-10-07T15:30:30.859Z,27328
2016-10-07T15:31:41.783Z,25280
2016-10-07T15:32:52.505Z,24032
2016-10-07T15:34:03.392Z,23680
2016-10-07T15:35:14.110Z,23040
2016-10-07T15:36:24.845Z,21984
2016-10-07T15:37:35.555Z,20864
2016-10-07T15:38:47.273Z,20128
2016-10-07T15:39:57.975Z,19904
2016-10-07T15:41:08.683Z,20064
2016-10-07T15:42:19.408Z,20896
2016-10-07T15:43:30.143Z,22368
2016-10-07T15:44:40.866Z,24480
2016-10-07T15:45:51.581Z,26240
2016-10-07T15:47:02.305Z,27072
2016-10-07T15:48:13.038Z,27520
2016-10-07T15:49:23.754Z,27808
2016-10-07T15:50:34.451Z,28224
2016-10-07T15:51:45.512Z,28736
2016-10-07T15:52:56.227Z,29696
2016-10-07T15:54:06.955Z,31008
2016-10-07T15:55:18.230Z,32928
2016-10-07T15:56:28.940Z,35168
2016-10-07T15:57:39.652Z,36448
2016-10-07T15:58:50.347Z,34176
2016-10-07T16:00:01.627Z,31136
2016-10-07T16:01:12.476Z,28640
2016-10-07T16:02:23.198Z,26208
2016-10-07T16:03:33.932Z,24640
2016-10-07T16:04:44.647Z,23264
2016-10-07T16:05:55.381Z,21568
2016-10-07T16:07:06.099Z,20032
2016-10-07T16:08:16.823Z,19200
2016-10-07T16:09:27.543Z,18944
2016-10-07T16:10:38.764Z,19456
2016-10-07T16:11:49.488Z,20352
2016-10-07T16:13:00.200Z,21664
2016-10-07T16:14:10.921Z,23264
2016-10-07T16:15:22.218Z,25472
2016-10-07T16:16:32.935Z,27296
2016-10-07T16:17:43.635Z,28256
2016-10-07T16:18:54.346Z,28960
2016-10-07T16:20:05.099Z,28992
2016-10-07T16:21:15.802Z,28352
2016-10-07T16:22:26.520Z,26976
2016-10-07T16:23:37.232Z,25856
2016-10-07T16:24:47.977Z,24576
2016-10-07T16:25:58.704Z,23552
2016-10-07T16:27:09.430Z,22752
2016-10-07T16:28:20.148Z,22048
2016-10-07T16:29:30.864Z,21632
2016-10-07T16:30:42.131Z,21824
2016-10-07T16:31:52.866Z,22560
2016-10-07T16:33:03.605Z,23712
2016-10-07T16:34:14.829Z,24832
2016-10-07T16:35:25.557Z,25184
2016-10-07T16:36:36.253Z,25376
2016-10-07T16:37:46.954Z,25984
2016-10-07T16:38:57.677Z,27264
2016-10-07T16:40:08.388Z,28416
2016-10-07T16:41:19.123Z,29760
2016-10-07T16:42:29.825Z,32768